createdAt,value
2023-02-14T00:01:21.043Z,15.37
2023-02-14T00:05:21.471Z,13.87
2023-02-14T00:09:24.954Z,14.13
2023-02-14T00:13:25.314Z,14.23
2023-02-14T00:17:25.662Z,14.40
2023-02-14T00:21:26.466Z,15.57
2023-02-14T00:25:29.427Z,15.83
2023-02-14T00:29:35.270Z,14.93
2023-02-14T00:33:38.292Z,16.27
2023-02-14T00:37:39.311Z,18.23
2023-02-14T00:41:43.297Z,16.90
2023-02-14T00:45:43.859Z,17.37
2023-02-14T00:49:44.206Z,19.83
2023-02-14T00:53:45.604Z,21.10
2023-02-14T00:57:48.724Z,19.17
2023-02-14T01:01:51.331Z,20.77
2023-02-14T01:05:53.341Z,21.57
2023-02-14T01:09:53.882Z,20.80
2023-02-14T01:14:00.464Z,20.00
2023-02-14T01:18:02.937Z,18.37
2023-02-14T01:22:03.587Z,16.67
2023-02-14T01:26:08.478Z,16.00
2023-02-14T01:30:14.166Z,18.30
2023-02-14T01:34:14.386Z,17.00
2023-02-14T01:38:14.890Z,17.13
2023-02-14T01:42:15.332Z,16.23
2023-02-14T01:46:18.933Z,16.17
2023-02-14T01:50:25.773Z,17.07
2023-02-14T01:54:30.668Z,17.03
2023-02-14T01:58:36.709Z,18.33
2023-02-14T02:02:39.809Z,18.77
2023-02-14T02:06:46.282Z,19.63
2023-02-14T02:10:46.651Z,21.53
2023-02-14T02:14:48.058Z,21.80
2023-02-14T02:19:12.799Z,19.13
2023-02-14T02:24:00.226Z,21.53
2023-02-14T02:28:40.345Z,20.23
2023-02-14T02:33:15.771Z,23.03
2023-02-14T02:37:41.776Z,23.70
2023-02-14T02:41:58.013Z,24.97
2023-02-14T02:46:17.489Z,24.50
2023-02-14T02:50:40.882Z,23.73
2023-02-14T02:54:52.224Z,24.87
2023-02-14T02:58:59.856Z,26.57
2023-02-14T03:03:14.886Z,24.37
2023-02-14T03:07:29.159Z,22.57
2023-02-14T03:11:33.085Z,23.53
2023-02-14T03:15:50.141Z,24.00
2023-02-14T03:20:18.186Z,24.27
2023-02-14T03:24:31.034Z,24.60
2023-02-14T03:28:45.671Z,24.93
2023-02-14T03:32:54.686Z,23.60
2023-02-14T03:37:02.171Z,22.63
2023-02-14T03:41:08.545Z,25.90
2023-02-14T03:45:25.916Z,24.00
2023-02-14T03:49:32.903Z,24.83
2023-02-14T03:53:39.605Z,20.50
2023-02-14T03:57:52.645Z,24.97
2023-02-14T04:02:02.781Z,24.50
2023-02-14T04:06:04.229Z,22.60
2023-02-14T04:10:04.575Z,26.10
2023-02-14T04:14:05.165Z,26.33
2023-02-14T04:18:20.651Z,27.00
2023-02-14T04:22:22.109Z,24.27
2023-02-14T04:26:22.368Z,25.07
2023-02-14T04:30:23.958Z,21.93
2023-02-14T04:34:27.364Z,27.60
2023-02-14T04:38:27.864Z,24.57
2023-02-14T04:42:28.650Z,24.40
2023-02-14T04:46:28.878Z,25.37
2023-02-14T04:50:32.125Z,25.83
2023-02-14T04:54:35.309Z,23.90
2023-02-14T04:58:36.052Z,24.23
2023-02-14T05:02:36.387Z,24.10
2023-02-14T05:06:39.692Z,23.93
2023-02-14T05:10:40.025Z,22.17
2023-02-14T05:14:40.313Z,25.63
2023-02-14T05:18:40.701Z,23.73
2023-02-14T05:22:43.679Z,24.17
2023-02-14T05:26:44.008Z,28.43
2023-02-14T05:30:44.765Z,20.33
2023-02-14T05:34:45.171Z,23.10
2023-02-14T05:38:48.821Z,20.63
2023-02-14T05:42:49.331Z,23.57
2023-02-14T05:46:49.729Z,21.53
2023-02-14T05:50:50.171Z,22.60
2023-02-14T05:54:53.598Z,25.37
2023-02-14T05:58:54.240Z,19.87
2023-02-14T06:02:54.838Z,22.57
2023-02-14T06:06:55.280Z,22.30
2023-02-14T06:10:58.881Z,24.80
2023-02-14T06:14:59.490Z,30.37
2023-02-14T06:19:00.073Z,25.43
2023-02-14T06:23:01.145Z,30.70
2023-02-14T06:27:05.321Z,27.43
2023-02-14T06:31:05.912Z,31.87
2023-02-14T06:35:06.833Z,32.60
2023-02-14T06:39:11.696Z,39.57
2023-02-14T06:43:14.933Z,31.47
2023-02-14T06:47:15.431Z,37.30
2023-02-14T06:51:16.585Z,38.07
2023-02-14T06:55:16.925Z,40.10
2023-02-14T06:59:20.082Z,33.43
2023-02-14T07:03:20.810Z,35.43
2023-02-14T07:07:21.154Z,30.83
2023-02-14T07:11:21.799Z,38.97
2023-02-14T07:15:24.894Z,36.13
2023-02-14T07:19:25.375Z,34.43
2023-02-14T07:23:26.875Z,29.57
2023-02-14T07:27:27.649Z,34.93
2023-02-14T07:31:30.970Z,32.73
2023-02-14T07:35:31.469Z,38.97
2023-02-14T07:39:32.232Z,33.63
2023-02-14T07:43:34.657Z,37.23
2023-02-14T07:47:37.664Z,29.13
2023-02-14T07:51:38.158Z,26.83
2023-02-14T07:55:39.740Z,27.83
2023-02-14T07:59:40.504Z,32.73
2023-02-14T08:03:49.623Z,26.43
2023-02-14T08:07:50.572Z,28.10
2023-02-14T08:12:03.603Z,27.70
2023-02-14T08:16:11.833Z,25.73
2023-02-14T08:20:16.522Z,22.53
2023-02-14T08:24:17.328Z,24.87
2023-02-14T08:28:18.324Z,23.50
2023-02-14T08:32:21.204Z,22.70
2023-02-14T08:36:24.464Z,24.90
2023-02-14T08:40:25.182Z,20.80
2023-02-14T08:44:25.737Z,22.40
2023-02-14T08:48:27.105Z,19.90
2023-02-14T08:52:30.296Z,18.13
2023-02-14T08:56:30.659Z,19.03
2023-02-14T09:00:31.341Z,19.53
2023-02-14T09:04:31.901Z,18.97
2023-02-14T09:08:35.176Z,18.43
2023-02-14T09:12:35.590Z,17.37
2023-02-14T09:16:36.196Z,16.70
2023-02-14T09:20:36.831Z,15.53
2023-02-14T09:24:42.497Z,16.20
2023-02-14T09:28:43.321Z,15.47
2023-02-14T09:32:44.028Z,16.30
2023-02-14T09:36:44.606Z,15.17
2023-02-14T09:40:51.343Z,15.50
2023-02-14T09:44:58.857Z,14.67
2023-02-14T09:49:01.386Z,15.30
2023-02-14T09:53:06.237Z,15.03
2023-02-14T09:57:21.475Z,14.00
2023-02-14T10:01:28.534Z,14.10
2023-02-14T10:05:40.151Z,14.30
2023-02-14T10:10:03.137Z,13.60
2023-02-14T10:14:17.694Z,13.60
2023-02-14T10:18:24.788Z,14.53
2023-02-14T10:22:34.733Z,13.93
2023-02-14T10:26:41.510Z,19.37
2023-02-14T10:31:01.657Z,14.20
2023-02-14T10:35:09.302Z,14.70
2023-02-14T10:39:35.666Z,14.40
2023-02-14T10:43:51.389Z,14.47
2023-02-14T10:48:06.450Z,13.47
2023-02-14T10:52:21.003Z,13.47
2023-02-14T10:56:29.477Z,13.30
2023-02-14T11:00:36.436Z,13.47
2023-02-14T11:04:39.760Z,12.73
2023-02-14T11:08:43.465Z,12.70
2023-02-14T11:12:44.849Z,12.27
2023-02-14T11:16:45.317Z,12.50
2023-02-14T11:21:05.183Z,13.13
2023-02-14T11:25:21.601Z,12.23
2023-02-14T11:29:31.908Z,12.27
2023-02-14T11:33:41.241Z,13.53
2023-02-14T11:37:53.691Z,14.30
2023-02-14T11:41:56.940Z,15.43
2023-02-14T11:46:10.842Z,15.73
2023-02-14T11:50:27.042Z,13.20
2023-02-14T11:54:37.856Z,12.97
2023-02-14T11:58:43.666Z,13.83
2023-02-14T12:02:49.111Z,14.20
2023-02-14T12:06:50.576Z,14.70
2023-02-14T12:11:06.008Z,14.87
2023-02-14T12:15:34.498Z,14.43
2023-02-14T12:19:45.324Z,13.03
2023-02-14T12:23:56.299Z,14.10
2023-02-14T12:28:07.892Z,15.43
2023-02-14T12:32:28.517Z,16.30
2023-02-14T12:36:50.504Z,16.67
2023-02-14T12:41:08.425Z,12.20
2023-02-14T12:45:23.425Z,11.73
2023-02-14T12:50:02.457Z,12.83
2023-02-14T12:54:30.861Z,13.63
2023-02-14T12:58:51.058Z,13.57
2023-02-14T13:03:31.040Z,14.03
2023-02-14T13:07:55.794Z,14.87
2023-02-14T13:12:11.263Z,14.27
2023-02-14T13:16:25.834Z,14.57
2023-02-14T13:20:52.495Z,14.47
2023-02-14T13:24:59.921Z,13.17
2023-02-14T13:29:06.714Z,17.97
2023-02-14T13:33:17.260Z,17.40
2023-02-14T13:37:24.330Z,18.73
2023-02-14T13:41:26.915Z,17.43
2023-02-14T13:45:58.557Z,19.00
2023-02-14T13:50:02.407Z,21.07
2023-02-14T13:54:05.894Z,20.40
2023-02-14T13:58:09.739Z,18.03
2023-02-14T14:02:35.690Z,17.30
2023-02-14T14:07:21.158Z,18.13
2023-02-14T14:12:03.199Z,17.60
2023-02-14T14:16:31.175Z,18.23
2023-02-14T14:20:52.688Z,19.37
2023-02-14T14:25:00.912Z,20.03
2023-02-14T14:29:04.388Z,20.37
2023-02-14T14:33:17.531Z,19.43
2023-02-14T14:37:22.227Z,19.70
2023-02-14T14:41:23.684Z,19.73
2023-02-14T14:45:31.981Z,18.30
2023-02-14T14:49:36.543Z,19.67
2023-02-14T14:53:47.345Z,21.30
2023-02-14T14:57:54.749Z,20.23
2023-02-14T15:01:58.604Z,20.47
2023-02-14T15:06:11.454Z,19.83
2023-02-14T15:10:30.391Z,20.80
2023-02-14T15:14:36.743Z,20.90
2023-02-14T15:18:40.692Z,19.87
2023-02-14T15:22:47.567Z,19.77
2023-02-14T15:26:53.459Z,20.33
2023-02-14T15:31:02.101Z,20.70
2023-02-14T15:35:09.978Z,22.83
2023-02-14T15:39:17.025Z,21.00
2023-02-14T15:43:25.206Z,25.73
2023-02-14T15:47:27.871Z,24.00
2023-02-14T15:51:36.572Z,24.83
2023-02-14T15:55:39.443Z,24.33
2023-02-14T15:59:45.440Z,23.67
2023-02-14T16:03:57.509Z,21.17
2023-02-14T16:08:07.991Z,24.97
2023-02-14T16:12:35.253Z,30.07
2023-02-14T16:17:06.393Z,31.10
2023-02-14T16:21:25.751Z,25.87
2023-02-14T16:25:28.978Z,25.30
2023-02-14T16:29:30.743Z,22.70
2023-02-14T16:33:37.340Z,23.57
2023-02-14T16:37:38.417Z,30.47
2023-02-14T16:41:48.148Z,27.03
2023-02-14T16:45:49.876Z,24.80
2023-02-14T16:49:50.795Z,26.97
2023-02-14T16:53:52.003Z,22.47
2023-02-14T16:57:56.534Z,31.73
2023-02-14T17:01:57.335Z,29.77
2023-02-14T17:06:01.482Z,29.90
2023-02-14T17:10:08.818Z,27.20
2023-02-14T17:14:15.523Z,28.27
2023-02-14T17:18:20.761Z,29.47
2023-02-14T17:22:21.327Z,21.23
2023-02-14T17:26:21.897Z,24.27
2023-02-14T17:30:25.922Z,19.87
2023-02-14T17:34:26.638Z,25.20
2023-02-14T17:38:27.272Z,24.27
2023-02-14T17:42:29.183Z,25.63
2023-02-14T17:46:34.364Z,22.93
2023-02-14T17:50:34.765Z,26.13
2023-02-14T17:54:40.002Z,27.23
2023-02-14T17:58:41.969Z,24.87
2023-02-14T18:02:46.408Z,21.43
2023-02-14T18:06:47.357Z,24.13
2023-02-14T18:10:48.158Z,25.63
2023-02-14T18:14:48.593Z,26.50
2023-02-14T18:18:52.106Z,24.07
2023-02-14T18:22:52.494Z,20.20
2023-02-14T18:26:53.733Z,22.87
2023-02-14T18:30:57.473Z,21.47
2023-02-14T18:35:02.295Z,22.50
2023-02-14T18:39:03.591Z,21.90
2023-02-14T18:43:06.887Z,19.60
2023-02-14T18:47:08.148Z,26.40
2023-02-14T18:51:16.126Z,23.33
2023-02-14T18:55:16.926Z,24.60
2023-02-14T18:59:20.809Z,24.20
2023-02-14T19:03:25.169Z,23.50
2023-02-14T19:07:30.043Z,23.23
2023-02-14T19:11:34.345Z,17.60
2023-02-14T19:15:34.720Z,20.60
2023-02-14T19:19:35.021Z,19.30
2023-02-14T19:23:38.854Z,22.77
2023-02-14T19:27:40.040Z,23.03
2023-02-14T19:31:44.135Z,21.03
2023-02-14T19:35:45.348Z,26.10
2023-02-14T19:39:48.869Z,22.47
2023-02-14T19:43:51.417Z,23.07
2023-02-14T19:47:52.030Z,18.23
2023-02-14T19:51:54.435Z,19.40
2023-02-14T19:55:57.667Z,22.43
2023-02-14T19:59:58.167Z,23.97
2023-02-14T20:03:58.588Z,16.03
2023-02-14T20:07:59.183Z,16.47
2023-02-14T20:12:04.288Z,20.30
2023-02-14T20:16:04.567Z,18.33
2023-02-14T20:20:05.055Z,17.27
2023-02-14T20:24:07.652Z,18.37
2023-02-14T20:28:11.357Z,16.80
2023-02-14T20:32:12.336Z,22.13
2023-02-14T20:36:14.500Z,23.27
2023-02-14T20:40:16.307Z,20.37
2023-02-14T20:44:22.592Z,18.93
2023-02-14T20:48:23.461Z,23.03
2023-02-14T20:52:24.582Z,20.67
2023-02-14T20:56:26.588Z,19.53
2023-02-14T21:00:30.154Z,20.60
2023-02-14T21:04:34.455Z,15.33
2023-02-14T21:08:34.884Z,14.93
2023-02-14T21:12:35.405Z,15.73
2023-02-14T21:16:39.093Z,16.13
2023-02-14T21:20:40.897Z,18.07
2023-02-14T21:24:41.274Z,21.77
2023-02-14T21:28:41.701Z,20.63
2023-02-14T21:32:45.279Z,18.17
2023-02-14T21:36:46.072Z,19.17
2023-02-14T21:40:47.968Z,19.20
2023-02-14T21:45:00.719Z,23.73
2023-02-14T21:49:19.852Z,20.73
2023-02-14T21:53:20.393Z,24.30
2023-02-14T21:57:21.172Z,23.70
2023-02-14T22:01:24.643Z,18.17
2023-02-14T22:05:28.887Z,21.10
2023-02-14T22:09:29.347Z,18.37
2023-02-14T22:13:30.147Z,16.03
2023-02-14T22:17:30.915Z,18.33
2023-02-14T22:21:37.801Z,15.27
2023-02-14T22:25:38.201Z,14.23
2023-02-14T22:29:39.071Z,14.57
2023-02-14T22:33:39.921Z,16.40
2023-02-14T22:37:43.119Z,15.67
2023-02-14T22:41:43.502Z,17.90
2023-02-14T22:45:44.261Z,15.57
2023-02-14T22:49:44.736Z,14.70
2023-02-14T22:53:48.425Z,14.93
2023-02-14T22:57:48.871Z,16.77
2023-02-14T23:01:51.177Z,15.70
2023-02-14T23:05:51.454Z,15.47
2023-02-14T23:09:55.343Z,14.17
2023-02-14T23:14:08.680Z,16.47
2023-02-14T23:18:21.397Z,17.43
2023-02-14T23:22:24.527Z,13.43
2023-02-14T23:26:27.656Z,14.47
2023-02-14T23:30:28.106Z,13.93
2023-02-14T23:34:29.806Z,14.73
2023-02-14T23:38:30.034Z,13.43
2023-02-14T23:42:33.168Z,13.63
2023-02-14T23:46:33.669Z,13.70
2023-02-14T23:50:34.124Z,12.87
2023-02-14T23:54:35.377Z,14.17
2023-02-14T23:58:38.398Z,14.67
